sensor_id;sensor_type;location;lat;lon;timestamp;pressure;altitude;pressure_sealevel;temperature;humidity
12468;BME280;57850;52.922;6.256;2023-07-29T00:00:43;100584.19;;;22.16;100.00
12468;BME280;57850;52.922;6.256;2023-07-29T00:03:10;100584.19;;;22.26;100.00
12468;BME280;57850;52.922;6.256;2023-07-29T00:05:37;100534.25;;;22.29;100.00
12468;BME280;57850;52.922;6.256;2023-07-29T00:08:04;100553.88;;;22.48;100.00
12468;BME280;57850;52.922;6.256;2023-07-29T00:10:31;100570.09;;;22.45;100.00
12468;BME280;57850;52.922;6.256;2023-07-29T00:12:58;100560.66;;;22.21;100.00
12468;BME280;57850;52.922;6.256;2023-07-29T00:15:26;100538.38;;;21.94;100.00
12468;BME280;57850;52.922;6.256;2023-07-29T00:17:52;100511.47;;;22.27;100.00
12468;BME280;57850;52.922;6.256;2023-07-29T00:20:19;100520.91;;;22.01;100.00
12468;BME280;57850;52.922;6.256;2023-07-29T00:22:46;100552.31;;;21.86;100.00
12468;BME280;57850;52.922;6.256;2023-07-29T00:25:15;100506.75;;;21.91;100.00
12468;BME280;57850;52.922;6.256;2023-07-29T00:27:41;100517.84;;;21.75;100.00
12468;BME280;57850;52.922;6.256;2023-07-29T00:30:08;100499.28;;;21.84;100.00
12468;BME280;57850;52.922;6.256;2023-07-29T00:32:37;100507.47;;;21.62;100.00
12468;BME280;57850;52.922;6.256;2023-07-29T00:35:06;100477.78;;;21.87;100.00
12468;BME280;57850;52.922;6.256;2023-07-29T00:37:33;100522.47;;;22.13;100.00
12468;BME280;57850;52.922;6.256;2023-07-29T00:39:59;100532.97;;;22.05;100.00
12468;BME280;57850;52.922;6.256;2023-07-29T00:42:26;100547.22;;;22.04;100.00
12468;BME280;57850;52.922;6.256;2023-07-29T00:44:52;100557.41;;;21.99;100.00
12468;BME280;57850;52.922;6.256;2023-07-29T00:47:20;100535.78;;;21.82;100.00
12468;BME280;57850;52.922;6.256;2023-07-29T00:49:48;100512.81;;;21.72;100.00
12468;BME280;57850;52.922;6.256;2023-07-29T00:52:14;100473.13;;;21.70;100.00
12468;BME280;57850;52.922;6.256;2023-07-29T00:54:42;100503.53;;;21.97;100.00
12468;BME280;57850;52.922;6.256;2023-07-29T00:57:10;100543.25;;;21.68;100.00
12468;BME280;57850;52.922;6.256;2023-07-29T00:59:38;100526.56;;;21.86;100.00
12468;BME280;57850;52.922;6.256;2023-07-29T01:02:08;100512.50;;;21.65;100.00
12468;BME280;57850;52.922;6.256;2023-07-29T01:04:36;100481.16;;;21.50;100.00
12468;BME280;57850;52.922;6.256;2023-07-29T01:07:11;100492.88;;;21.47;100.00
12468;BME280;57850;52.922;6.256;2023-07-29T01:09:44;100462.09;;;21.84;100.00
12468;BME280;57850;52.922;6.256;2023-07-29T01:12:20;100494.03;;;21.54;100.00
12468;BME280;57850;52.922;6.256;2023-07-29T01:14:55;100502.50;;;21.78;100.00
12468;BME280;57850;52.922;6.256;2023-07-29T01:17:30;100506.22;;;21.66;100.00
12468;BME280;57850;52.922;6.256;2023-07-29T01:20:01;100513.31;;;21.56;100.00
12468;BME280;57850;52.922;6.256;2023-07-29T01:22:34;100508.38;;;21.82;100.00
12468;BME280;57850;52.922;6.256;2023-07-29T01:25:03;100494.47;;;21.59;100.00
12468;BME280;57850;52.922;6.256;2023-07-29T01:27:30;100505.91;;;21.90;100.00
12468;BME280;57850;52.922;6.256;2023-07-29T01:29:57;100527.31;;;21.88;100.00
12468;BME280;57850;52.922;6.256;2023-07-29T01:32:29;100514.69;;;21.51;100.00
12468;BME280;57850;52.922;6.256;2023-07-29T01:35:02;100520.97;;;21.50;100.00
12468;BME280;57850;52.922;6.256;2023-07-29T01:37:32;100513.78;;;21.61;100.00
12468;BME280;57850;52.922;6.256;2023-07-29T01:40:00;100512.69;;;21.43;100.00
12468;BME280;57850;52.922;6.256;2023-07-29T01:42:28;100501.47;;;21.30;100.00
12468;BME280;57850;52.922;6.256;2023-07-29T01:44:56;100474.94;;;21.30;100.00
12468;BME280;57850;52.922;6.256;2023-07-29T01:47:23;100470.41;;;21.21;100.00
12468;BME280;57850;52.922;6.256;2023-07-29T01:49:49;100459.25;;;21.06;100.00
12468;BME280;57850;52.922;6.256;2023-07-29T01:52:16;100433.81;;;21.24;100.00
12468;BME280;57850;52.922;6.256;2023-07-29T01:54:42;100446.22;;;20.94;100.00
12468;BME280;57850;52.922;6.256;2023-07-29T01:57:10;100429.75;;;21.00;100.00
12468;BME280;57850;52.922;6.256;2023-07-29T01:59:38;100400.47;;;21.01;100.00
12468;BME280;57850;52.922;6.256;2023-07-29T02:02:05;100385.94;;;21.26;100.00
12468;BME280;57850;52.922;6.256;2023-07-29T02:04:32;100406.91;;;21.08;100.00
12468;BME280;57850;52.922;6.256;2023-07-29T02:06:59;100401.22;;;20.82;100.00
12468;BME280;57850;52.922;6.256;2023-07-29T02:09:25;100380.75;;;20.94;100.00
12468;BME280;57850;52.922;6.256;2023-07-29T02:11:52;100367.84;;;20.90;100.00
12468;BME280;57850;52.922;6.256;2023-07-29T02:14:19;100361.97;;;20.76;100.00
12468;BME280;57850;52.922;6.256;2023-07-29T02:16:47;100325.25;;;20.81;100.00
12468;BME280;57850;52.922;6.256;2023-07-29T02:19:14;100342.66;;;21.05;100.00
12468;BME280;57850;52.922;6.256;2023-07-29T02:21:41;100364.97;;;21.02;100.00
12468;BME280;57850;52.922;6.256;2023-07-29T02:24:08;100367.50;;;21.04;100.00
12468;BME280;57850;52.922;6.256;2023-07-29T02:26:35;100365.94;;;20.92;100.00
12468;BME280;57850;52.922;6.256;2023-07-29T02:29:02;100380.53;;;20.76;100.00
12468;BME280;57850;52.922;6.256;2023-07-29T02:31:28;100379.13;;;21.33;100.00
12468;BME280;57850;52.922;6.256;2023-07-29T02:33:56;100409.50;;;21.19;100.00
12468;BME280;57850;52.922;6.256;2023-07-29T02:36:23;100432.81;;;21.16;100.00
12468;BME280;57850;52.922;6.256;2023-07-29T02:38:49;100412.59;;;21.24;100.00
12468;BME280;57850;52.922;6.256;2023-07-29T02:41:16;100425.44;;;21.19;100.00
12468;BME280;57850;52.922;6.256;2023-07-29T02:43:43;100412.41;;;20.96;100.00
12468;BME280;57850;52.922;6.256;2023-07-29T02:46:10;100408.00;;;21.06;100.00
12468;BME280;57850;52.922;6.256;2023-07-29T02:48:36;100412.63;;;21.04;100.00
12468;BME280;57850;52.922;6.256;2023-07-29T02:51:04;100426.44;;;21.28;100.00
12468;BME280;57850;52.922;6.256;2023-07-29T02:53:31;100412.63;;;21.04;100.00
12468;BME280;57850;52.922;6.256;2023-07-29T02:55:58;100422.88;;;21.18;100.00
12468;BME280;57850;52.922;6.256;2023-07-29T02:58:24;100411.03;;;21.22;100.00
12468;BME280;57850;52.922;6.256;2023-07-29T03:00:51;100448.50;;;21.28;100.00
12468;BME280;57850;52.922;6.256;2023-07-29T03:03:18;100463.03;;;21.64;100.00
12468;BME280;57850;52.922;6.256;2023-07-29T03:05:45;100498.34;;;21.55;100.00
12468;BME280;57850;52.922;6.256;2023-07-29T03:08:13;100506.41;;;21.44;100.00
12468;BME280;57850;52.922;6.256;2023-07-29T03:10:40;100501.16;;;21.23;100.00
12468;BME280;57850;52.922;6.256;2023-07-29T03:13:07;100500.06;;;21.26;100.00
12468;BME280;57850;52.922;6.256;2023-07-29T03:15:33;100497.88;;;21.41;100.00
12468;BME280;57850;52.922;6.256;2023-07-29T03:18:00;100512.44;;;21.46;100.00
12468;BME280;57850;52.922;6.256;2023-07-29T03:20:26;100522.44;;;21.33;100.00
12468;BME280;57850;52.922;6.256;2023-07-29T03:22:53;100518.22;;;21.30;100.00
12468;BME280;57850;52.922;6.256;2023-07-29T03:25:21;100518.03;;;21.02;100.00
12468;BME280;57850;52.922;6.256;2023-07-29T03:27:48;100484.91;;;21.17;100.00
12468;BME280;57850;52.922;6.256;2023-07-29T03:30:15;100501.06;;;21.34;100.00
12468;BME280;57850;52.922;6.256;2023-07-29T03:32:43;100509.50;;;20.98;100.00
12468;BME280;57850;52.922;6.256;2023-07-29T03:35:10;100498.25;;;20.85;100.00
12468;BME280;57850;52.922;6.256;2023-07-29T03:37:37;100492.53;;;20.90;100.00
12468;BME280;57850;52.922;6.256;2023-07-29T03:40:05;100471.63;;;20.96;100.00
12468;BME280;57850;52.922;6.256;2023-07-29T03:42:33;100479.72;;;20.74;100.00
12468;BME280;57850;52.922;6.256;2023-07-29T03:45:00;100460.72;;;20.69;100.00
12468;BME280;57850;52.922;6.256;2023-07-29T03:47:27;100443.53;;;20.63;100.00
12468;BME280;57850;52.922;6.256;2023-07-29T03:49:53;100413.88;;;20.38;100.00
12468;BME280;57850;52.922;6.256;2023-07-29T03:52:20;100384.81;;;20.47;100.00
12468;BME280;57850;52.922;6.256;2023-07-29T03:54:46;100386.09;;;20.73;100.00
12468;BME280;57850;52.922;6.256;2023-07-29T03:57:13;100395.84;;;20.73;100.00
12468;BME280;57850;52.922;6.256;2023-07-29T03:59:42;100406.00;;;20.26;100.00
12468;BME280;57850;52.922;6.256;2023-07-29T04:02:10;100364.50;;;20.37;100.00
12468;BME280;57850;52.922;6.256;2023-07-29T04:04:36;100357.88;;;20.72;100.00
12468;BME280;57850;52.922;6.256;2023-07-29T04:07:03;100379.47;;;20.89;100.00
12468;BME280;57850;52.922;6.256;2023-07-29T04:09:30;100389.78;;;20.41;100.00
12468;BME280;57850;52.922;6.256;2023-07-29T04:11:57;100331.16;;;20.34;100.00
12468;BME280;57850;52.922;6.256;2023-07-29T04:14:23;100320.97;;;20.18;100.00
12468;BME280;57850;52.922;6.256;2023-07-29T04:16:51;100297.53;;;20.14;100.00
12468;BME280;57850;52.922;6.256;2023-07-29T04:19:18;100302.69;;;20.36;100.00
12468;BME280;57850;52.922;6.256;2023-07-29T04:21:44;100328.75;;;20.31;100.00
12468;BME280;57850;52.922;6.256;2023-07-29T04:24:11;100324.31;;;20.20;100.00
12468;BME280;57850;52.922;6.256;2023-07-29T04:26:38;100308.91;;;20.25;100.00
12468;BME280;57850;52.922;6.256;2023-07-29T04:29:05;100322.91;;;20.16;100.00
12468;BME280;57850;52.922;6.256;2023-07-29T04:31:32;100335.59;;;20.34;100.00
12468;BME280;57850;52.922;6.256;2023-07-29T04:34:00;100331.78;;;20.47;100.00
12468;BME280;57850;52.922;6.256;2023-07-29T04:36:27;100350.78;;;20.52;100.00
12468;BME280;57850;52.922;6.256;2023-07-29T04:38:54;100377.03;;;20.55;100.00
12468;BME280;57850;52.922;6.256;2023-07-29T04:41:21;100404.91;;;20.70;100.00
12468;BME280;57850;52.922;6.256;2023-07-29T04:43:47;100419.25;;;20.68;100.00
12468;BME280;57850;52.922;6.256;2023-07-29T04:46:14;100439.84;;;21.06;100.00
12468;BME280;57850;52.922;6.256;2023-07-29T04:48:41;100458.81;;;20.80;100.00
12468;BME280;57850;52.922;6.256;2023-07-29T04:51:10;100450.75;;;20.61;100.00
12468;BME280;57850;52.922;6.256;2023-07-29T04:53:36;100437.34;;;20.83;100.00
12468;BME280;57850;52.922;6.256;2023-07-29T04:56:04;100458.44;;;20.64;100.00
12468;BME280;57850;52.922;6.256;2023-07-29T04:58:30;100452.50;;;20.72;100.00
12468;BME280;57850;52.922;6.256;2023-07-29T05:01:00;100429.59;;;20.71;100.00
12468;BME280;57850;52.922;6.256;2023-07-29T05:03:26;100441.28;;;20.27;100.00
12468;BME280;57850;52.922;6.256;2023-07-29T05:05:53;100419.69;;;20.52;100.00
12468;BME280;57850;52.922;6.256;2023-07-29T05:08:22;100437.56;;;20.50;100.00
12468;BME280;57850;52.922;6.256;2023-07-29T05:10:49;100441.69;;;20.84;100.00
12468;BME280;57850;52.922;6.256;2023-07-29T05:13:16;100465.06;;;20.70;100.00
12468;BME280;57850;52.922;6.256;2023-07-29T05:15:43;100461.47;;;20.80;100.00
12468;BME280;57850;52.922;6.256;2023-07-29T05:18:10;100459.81;;;20.79;100.00
12468;BME280;57850;52.922;6.256;2023-07-29T05:20:37;100460.25;;;20.84;100.00
12468;BME280;57850;52.922;6.256;2023-07-29T05:23:03;100449.72;;;20.73;100.00
12468;BME280;57850;52.922;6.256;2023-07-29T05:25:31;100453.00;;;20.87;100.00
12468;BME280;57850;52.922;6.256;2023-07-29T05:27:59;100454.00;;;20.86;100.00
12468;BME280;57850;52.922;6.256;2023-07-29T05:30:26;100461.88;;;20.76;100.00
12468;BME280;57850;52.922;6.256;2023-07-29T05:32:56;100476.31;;;20.83;100.00
12468;BME280;57850;52.922;6.256;2023-07-29T05:35:22;100479.94;;;20.82;100.00
12468;BME280;57850;52.922;6.256;2023-07-29T05:37:49;100485.09;;;21.04;100.00
12468;BME280;57850;52.922;6.256;2023-07-29T05:40:16;100495.06;;;21.12;100.00
12468;BME280;57850;52.922;6.256;2023-07-29T05:42:44;100505.69;;;21.12;100.00
12468;BME280;57850;52.922;6.256;2023-07-29T05:45:11;100513.19;;;21.07;100.00
12468;BME280;57850;52.922;6.256;2023-07-29T05:47:38;100513.44;;;21.04;100.00
12468;BME280;57850;52.922;6.256;2023-07-29T05:50:06;100493.75;;;21.27;100.00
12468;BME280;57850;52.922;6.256;2023-07-29T05:52:33;100526.22;;;21.10;100.00
12468;BME280;57850;52.922;6.256;2023-07-29T05:55:00;100514.38;;;21.14;100.00
12468;BME280;57850;52.922;6.256;2023-07-29T05:57:27;100512.22;;;21.28;100.00
12468;BME280;57850;52.922;6.256;2023-07-29T05:59:55;100500.28;;;21.02;100.00
12468;BME280;57850;52.922;6.256;2023-07-29T06:02:22;100487.97;;;21.12;100.00
12468;BME280;57850;52.922;6.256;2023-07-29T06:04:48;100489.66;;;21.13;100.00
12468;BME280;57850;52.922;6.256;2023-07-29T06:07:15;100496.38;;;21.17;100.00
12468;BME280;57850;52.922;6.256;2023-07-29T06:09:42;100511.97;;;21.11;100.00
12468;BME280;57850;52.922;6.256;2023-07-29T06:12:08;100488.59;;;21.25;100.00
12468;BME280;57850;52.922;6.256;2023-07-29T06:14:35;100481.38;;;21.67;100.00
12468;BME280;57850;52.922;6.256;2023-07-29T06:17:03;100502.16;;;21.93;100.00
12468;BME280;57850;52.922;6.256;2023-07-29T06:19:32;100490.56;;;21.63;100.00
12468;BME280;57850;52.922;6.256;2023-07-29T06:21:58;100469.22;;;21.84;100.00
12468;BME280;57850;52.922;6.256;2023-07-29T06:24:26;100504.06;;;21.51;100.00
12468;BME280;57850;52.922;6.256;2023-07-29T06:26:53;100516.66;;;21.58;100.00
12468;BME280;57850;52.922;6.256;2023-07-29T06:29:19;100511.69;;;21.74;100.00
12468;BME280;57850;52.922;6.256;2023-07-29T06:31:46;100520.47;;;21.65;100.00
12468;BME280;57850;52.922;6.256;2023-07-29T06:34:14;100503.06;;;21.82;100.00
12468;BME280;57850;52.922;6.256;2023-07-29T06:36:41;100464.97;;;21.93;100.00
12468;BME280;57850;52.922;6.256;2023-07-29T06:39:07;100502.00;;;21.54;100.00
12468;BME280;57850;52.922;6.256;2023-07-29T06:41:34;100477.00;;;21.57;100.00
12468;BME280;57850;52.922;6.256;2023-07-29T06:44:00;100467.56;;;21.83;100.00
12468;BME280;57850;52.922;6.256;2023-07-29T06:46:27;100470.50;;;21.80;100.00
12468;BME280;57850;52.922;6.256;2023-07-29T06:48:54;100525.84;;;22.34;100.00
12468;BME280;57850;52.922;6.256;2023-07-29T06:51:22;100540.72;;;22.36;100.00
12468;BME280;57850;52.922;6.256;2023-07-29T06:53:48;100548.44;;;22.00;100.00
12468;BME280;57850;52.922;6.256;2023-07-29T06:56:15;100521.78;;;22.49;100.00
12468;BME280;57850;52.922;6.256;2023-07-29T06:58:41;100554.19;;;21.95;100.00
12468;BME280;57850;52.922;6.256;2023-07-29T07:01:08;100552.78;;;22.01;100.00
12468;BME280;57850;52.922;6.256;2023-07-29T07:03:35;100518.38;;;21.99;100.00
12468;BME280;57850;52.922;6.256;2023-07-29T07:06:02;100537.50;;;21.93;100.00
12468;BME280;57850;52.922;6.256;2023-07-29T07:08:29;100549.63;;;22.26;100.00
12468;BME280;57850;52.922;6.256;2023-07-29T07:10:56;100552.53;;;22.04;100.00
12468;BME280;57850;52.922;6.256;2023-07-29T07:13:23;100546.97;;;22.26;100.00
12468;BME280;57850;52.922;6.256;2023-07-29T07:15:49;100550.47;;;22.17;100.00
12468;BME280;57850;52.922;6.256;2023-07-29T07:18:16;100544.06;;;22.48;100.00
12468;BME280;57850;52.922;6.256;2023-07-29T07:20:43;100551.34;;;22.27;100.00
12468;BME280;57850;52.922;6.256;2023-07-29T07:23:09;100552.91;;;22.58;100.00
12468;BME280;57850;52.922;6.256;2023-07-29T07:25:40;100563.78;;;22.26;100.00
12468;BME280;57850;52.922;6.256;2023-07-29T07:28:07;100557.72;;;22.15;100.00
12468;BME280;57850;52.922;6.256;2023-07-29T07:30:35;100561.56;;;22.41;100.00
12468;BME280;57850;52.922;6.256;2023-07-29T07:33:01;100573.72;;;22.34;100.00
12468;BME280;57850;52.922;6.256;2023-07-29T07:35:28;100567.84;;;22.40;100.00
12468;BME280;57850;52.922;6.256;2023-07-29T07:37:54;100572.34;;;22.39;100.00
12468;BME280;57850;52.922;6.256;2023-07-29T07:40:21;100579.28;;;22.71;100.00
12468;BME280;57850;52.922;6.256;2023-07-29T07:42:49;100597.81;;;22.42;100.00
12468;BME280;57850;52.922;6.256;2023-07-29T07:45:15;100604.75;;;23.02;100.00
12468;BME280;57850;52.922;6.256;2023-07-29T07:47:43;100619.44;;;22.68;100.00
12468;BME280;57850;52.922;6.256;2023-07-29T07:50:10;100607.97;;;22.67;100.00
12468;BME280;57850;52.922;6.256;2023-07-29T07:52:36;100601.88;;;22.56;100.00
12468;BME280;57850;52.922;6.256;2023-07-29T07:55:03;100615.50;;;23.39;100.00
12468;BME280;57850;52.922;6.256;2023-07-29T07:57:30;100664.56;;;22.98;100.00
12468;BME280;57850;52.922;6.256;2023-07-29T07:59:58;100645.50;;;23.31;100.00
12468;BME280;57850;52.922;6.256;2023-07-29T08:02:24;100653.56;;;23.78;100.00
12468;BME280;57850;52.922;6.256;2023-07-29T08:04:51;100675.78;;;23.11;100.00
12468;BME280;57850;52.922;6.256;2023-07-29T08:07:18;100674.22;;;23.28;100.00
12468;BME280;57850;52.922;6.256;2023-07-29T08:09:44;100676.19;;;22.97;100.00
12468;BME280;57850;52.922;6.256;2023-07-29T08:12:11;100638.91;;;23.07;100.00
12468;BME280;57850;52.922;6.256;2023-07-29T08:14:37;100649.84;;;23.32;100.00
12468;BME280;57850;52.922;6.256;2023-07-29T08:17:07;100649.84;;;23.23;100.00
12468;BME280;57850;52.922;6.256;2023-07-29T08:19:33;100670.00;;;24.20;100.00
12468;BME280;57850;52.922;6.256;2023-07-29T08:22:02;100686.22;;;24.36;100.00
12468;BME280;57850;52.922;6.256;2023-07-29T08:24:28;100711.28;;;24.16;100.00
12468;BME280;57850;52.922;6.256;2023-07-29T08:26:55;100751.66;;;23.55;100.00
12468;BME280;57850;52.922;6.256;2023-07-29T08:29:21;100724.41;;;23.90;100.00
12468;BME280;57850;52.922;6.256;2023-07-29T08:31:48;100729.78;;;23.52;100.00
12468;BME280;57850;52.922;6.256;2023-07-29T08:34:18;100763.13;;;23.65;100.00
12468;BME280;57850;52.922;6.256;2023-07-29T08:36:44;100766.16;;;23.32;100.00
12468;BME280;57850;52.922;6.256;2023-07-29T08:39:11;100755.25;;;23.35;100.00
12468;BME280;57850;52.922;6.256;2023-07-29T08:41:44;100740.69;;;23.87;100.00
12468;BME280;57850;52.922;6.256;2023-07-29T08:44:22;100734.63;;;23.85;100.00
12468;BME280;57850;52.922;6.256;2023-07-29T08:46:49;100743.19;;;23.88;100.00
12468;BME280;57850;52.922;6.256;2023-07-29T08:49:17;100729.88;;;24.62;100.00
12468;BME280;57850;52.922;6.256;2023-07-29T08:51:44;100762.94;;;24.15;100.00
12468;BME280;57850;52.922;6.256;2023-07-29T08:54:13;100778.38;;;24.58;100.00
12468;BME280;57850;52.922;6.256;2023-07-29T08:56:41;100792.91;;;24.45;100.00
12468;BME280;57850;52.922;6.256;2023-07-29T08:59:07;100774.97;;;24.28;100.00
12468;BME280;57850;52.922;6.256;2023-07-29T09:01:36;100777.38;;;24.12;100.00
12468;BME280;57850;52.922;6.256;2023-07-29T09:04:03;100752.22;;;24.34;100.00
12468;BME280;57850;52.922;6.256;2023-07-29T09:06:31;100776.63;;;24.39;100.00
12468;BME280;57850;52.922;6.256;2023-07-29T09:08:58;100762.94;;;24.24;100.00
12468;BME280;57850;52.922;6.256;2023-07-29T09:11:25;100772.06;;;24.03;100.00
12468;BME280;57850;52.922;6.256;2023-07-29T09:13:52;100782.97;;;24.09;100.00
12468;BME280;57850;52.922;6.256;2023-07-29T09:16:20;100779.63;;;24.63;100.00
12468;BME280;57850;52.922;6.256;2023-07-29T09:18:47;100793.22;;;24.70;100.00
12468;BME280;57850;52.922;6.256;2023-07-29T09:21:15;100802.44;;;24.48;100.00
12468;BME280;57850;52.922;6.256;2023-07-29T09:23:44;100777.38;;;24.95;100.00
12468;BME280;57850;52.922;6.256;2023-07-29T09:26:11;100784.63;;;25.30;100.00
12468;BME280;57850;52.922;6.256;2023-07-29T09:28:39;100780.66;;;24.89;100.00
12468;BME280;57850;52.922;6.256;2023-07-29T09:31:06;100790.50;;;25.69;100.00
12468;BME280;57850;52.922;6.256;2023-07-29T09:33:34;100810.00;;;25.17;100.00
12468;BME280;57850;52.922;6.256;2023-07-29T09:36:03;100810.69;;;24.91;100.00
12468;BME280;57850;52.922;6.256;2023-07-29T09:38:31;100794.88;;;24.80;100.00
12468;BME280;57850;52.922;6.256;2023-07-29T09:40:59;100799.72;;;24.21;100.00
12468;BME280;57850;52.922;6.256;2023-07-29T09:43:28;100807.34;;;25.62;100.00
12468;BME280;57850;52.922;6.256;2023-07-29T09:45:55;100799.28;;;25.79;100.00
12468;BME280;57850;52.922;6.256;2023-07-29T09:48:22;100819.50;;;26.17;100.00
12468;BME280;57850;52.922;6.256;2023-07-29T09:50:49;100818.72;;;26.07;100.00
12468;BME280;57850;52.922;6.256;2023-07-29T09:53:16;100815.56;;;25.86;100.00
12468;BME280;57850;52.922;6.256;2023-07-29T09:55:46;100810.97;;;25.78;100.00
12468;BME280;57850;52.922;6.256;2023-07-29T09:58:14;100844.63;;;25.09;100.00
12468;BME280;57850;52.922;6.256;2023-07-29T10:00:45;100809.91;;;25.89;100.00
12468;BME280;57850;52.922;6.256;2023-07-29T10:03:13;100815.28;;;25.44;100.00
12468;BME280;57850;52.922;6.256;2023-07-29T10:05:41;100836.34;;;25.56;100.00
12468;BME280;57850;52.922;6.256;2023-07-29T10:08:10;100806.25;;;25.72;100.00
12468;BME280;57850;52.922;6.256;2023-07-29T10:10:37;100827.34;;;25.30;100.00
12468;BME280;57850;52.922;6.256;2023-07-29T10:13:04;100822.50;;;25.43;100.00
12468;BME280;57850;52.922;6.256;2023-07-29T10:15:33;100832.56;;;25.04;100.00
12468;BME280;57850;52.922;6.256;2023-07-29T10:18:01;100825.91;;;24.81;100.00
12468;BME280;57850;52.922;6.256;2023-07-29T10:20:29;100823.13;;;24.36;100.00
12468;BME280;57850;52.922;6.256;2023-07-29T10:22:59;100830.75;;;24.68;100.00
12468;BME280;57850;52.922;6.256;2023-07-29T10:25:32;100831.00;;;23.90;100.00
12468;BME280;57850;52.922;6.256;2023-07-29T10:28:04;100771.41;;;23.43;100.00
12468;BME280;57850;52.922;6.256;2023-07-29T10:30:33;100733.22;;;23.81;100.00
12468;BME280;57850;52.922;6.256;2023-07-29T10:33:03;100787.06;;;23.94;100.00
12468;BME280;57850;52.922;6.256;2023-07-29T10:35:29;100806.31;;;23.88;100.00
12468;BME280;57850;52.922;6.256;2023-07-29T10:37:56;100858.47;;;23.81;100.00
12468;BME280;57850;52.922;6.256;2023-07-29T10:40:23;100860.50;;;24.17;100.00
12468;BME280;57850;52.922;6.256;2023-07-29T10:43:00;100862.56;;;24.04;100.00
12468;BME280;57850;52.922;6.256;2023-07-29T10:45:37;100860.75;;;23.95;100.00
12468;BME280;57850;52.922;6.256;2023-07-29T10:48:07;100837.59;;;23.76;100.00
12468;BME280;57850;52.922;6.256;2023-07-29T10:50:34;100810.94;;;24.15;100.00
12468;BME280;57850;52.922;6.256;2023-07-29T10:53:00;100806.19;;;23.80;100.00
12468;BME280;57850;52.922;6.256;2023-07-29T10:55:29;100810.06;;;24.33;100.00
12468;BME280;57850;52.922;6.256;2023-07-29T10:58:07;100780.06;;;24.95;100.00
12468;BME280;57850;52.922;6.256;2023-07-29T11:00:35;100809.56;;;25.39;100.00
12468;BME280;57850;52.922;6.256;2023-07-29T11:03:05;100823.84;;;25.30;100.00
12468;BME280;57850;52.922;6.256;2023-07-29T11:05:42;100819.69;;;25.80;100.00
12468;BME280;57850;52.922;6.256;2023-07-29T11:08:20;100829.59;;;25.88;100.00
12468;BME280;57850;52.922;6.256;2023-07-29T11:11:03;100851.13;;;26.65;100.00
12468;BME280;57850;52.922;6.256;2023-07-29T11:13:31;100838.78;;;25.85;100.00
12468;BME280;57850;52.922;6.256;2023-07-29T11:15:58;100845.69;;;25.16;100.00
12468;BME280;57850;52.922;6.256;2023-07-29T11:18:29;100852.09;;;25.05;100.00
12468;BME280;57850;52.922;6.256;2023-07-29T11:20:57;100860.41;;;24.56;100.00
12468;BME280;57850;52.922;6.256;2023-07-29T11:23:29;100859.78;;;25.18;100.00
12468;BME280;57850;52.922;6.256;2023-07-29T11:25:56;100845.81;;;26.22;100.00
12468;BME280;57850;52.922;6.256;2023-07-29T11:28:23;100853.56;;;25.44;100.00
12468;BME280;57850;52.922;6.256;2023-07-29T11:30:50;100856.25;;;25.97;100.00
12468;BME280;57850;52.922;6.256;2023-07-29T11:33:18;100874.28;;;25.15;100.00
12468;BME280;57850;52.922;6.256;2023-07-29T11:35:47;100877.66;;;24.61;100.00
12468;BME280;57850;52.922;6.256;2023-07-29T11:38:19;100892.28;;;24.57;100.00
12468;BME280;57850;52.922;6.256;2023-07-29T11:40:54;100889.06;;;24.44;100.00
12468;BME280;57850;52.922;6.256;2023-07-29T11:43:21;100864.22;;;24.43;100.00
12468;BME280;57850;52.922;6.256;2023-07-29T11:45:47;100852.31;;;24.84;100.00
12468;BME280;57850;52.922;6.256;2023-07-29T11:48:14;100836.81;;;24.97;100.00
12468;BME280;57850;52.922;6.256;2023-07-29T11:50:41;100847.59;;;25.33;100.00
12468;BME280;57850;52.922;6.256;2023-07-29T11:53:11;100863.84;;;26.20;100.00
12468;BME280;57850;52.922;6.256;2023-07-29T11:55:37;100855.09;;;26.61;100.00
12468;BME280;57850;52.922;6.256;2023-07-29T11:58:04;100875.44;;;26.72;100.00
12468;BME280;57850;52.922;6.256;2023-07-29T12:00:31;100881.94;;;26.26;100.00
12468;BME280;57850;52.922;6.256;2023-07-29T12:02:57;100877.66;;;25.97;100.00
12468;BME280;57850;52.922;6.256;2023-07-29T12:05:25;100871.31;;;26.85;100.00
12468;BME280;57850;52.922;6.256;2023-07-29T12:07:51;100896.16;;;25.73;100.00
12468;BME280;57850;52.922;6.256;2023-07-29T12:10:19;100894.09;;;25.67;100.00
12468;BME280;57850;52.922;6.256;2023-07-29T12:12:47;100902.50;;;25.18;100.00
12468;BME280;57850;52.922;6.256;2023-07-29T12:15:23;100870.25;;;26.27;100.00
12468;BME280;57850;52.922;6.256;2023-07-29T12:17:52;100868.19;;;25.85;100.00
12468;BME280;57850;52.922;6.256;2023-07-29T12:20:20;100905.94;;;25.00;100.00
12468;BME280;57850;52.922;6.256;2023-07-29T12:22:51;100887.25;;;26.00;100.00
12468;BME280;57850;52.922;6.256;2023-07-29T12:25:20;100902.56;;;25.98;100.00
12468;BME280;57850;52.922;6.256;2023-07-29T12:27:46;100901.66;;;25.72;100.00
12468;BME280;57850;52.922;6.256;2023-07-29T12:30:13;100866.69;;;27.37;100.00
12468;BME280;57850;52.922;6.256;2023-07-29T12:32:43;100894.66;;;26.93;100.00
12468;BME280;57850;52.922;6.256;2023-07-29T12:35:10;100915.25;;;26.14;100.00
12468;BME280;57850;52.922;6.256;2023-07-29T12:37:37;100924.59;;;25.74;100.00
12468;BME280;57850;52.922;6.256;2023-07-29T12:40:05;100922.56;;;25.59;100.00
12468;BME280;57850;52.922;6.256;2023-07-29T12:42:33;100887.06;;;26.37;100.00